sensor_id;sensor_type;location;lat;lon;timestamp;P1;durP1;ratioP1;P2;durP2;ratioP2
31238;SDS011;17871;31.584;74.450;2022-08-21T00:02:20;29.67;;;18.15;;
31238;SDS011;17871;31.584;74.450;2022-08-21T00:04:52;42.67;;;20.90;;
31238;SDS011;17871;31.584;74.450;2022-08-21T00:07:24;35.92;;;19.08;;
31238;SDS011;17871;31.584;74.450;2022-08-21T00:09:53;32.35;;;19.77;;
31238;SDS011;17871;31.584;74.450;2022-08-21T00:12:23;37.70;;;19.95;;
31238;SDS011;17871;31.584;74.450;2022-08-21T00:14:52;36.55;;;18.77;;
31238;SDS011;17871;31.584;74.450;2022-08-21T00:17:24;34.13;;;18.95;;
31238;SDS011;17871;31.584;74.450;2022-08-21T00:19:53;37.33;;;20.15;;
31238;SDS011;17871;31.584;74.450;2022-08-21T00:22:22;34.72;;;19.40;;
31238;SDS011;17871;31.584;74.450;2022-08-21T00:24:51;43.58;;;20.27;;
31238;SDS011;17871;31.584;74.450;2022-08-21T00:27:20;38.25;;;18.95;;
31238;SDS011;17871;31.584;74.450;2022-08-21T00:29:50;34.60;;;19.92;;
31238;SDS011;17871;31.584;74.450;2022-08-21T00:32:23;36.22;;;20.23;;
31238;SDS011;17871;31.584;74.450;2022-08-21T00:34:53;40.13;;;19.27;;
31238;SDS011;17871;31.584;74.450;2022-08-21T00:37:22;40.75;;;19.52;;
31238;SDS011;17871;31.584;74.450;2022-08-21T00:39:51;43.80;;;20.50;;
31238;SDS011;17871;31.584;74.450;2022-08-21T00:42:21;47.67;;;24.92;;
31238;SDS011;17871;31.584;74.450;2022-08-21T00:44:50;31.77;;;19.45;;
31238;SDS011;17871;31.584;74.450;2022-08-21T00:47:19;37.85;;;20.70;;
31238;SDS011;17871;31.584;74.450;2022-08-21T00:49:49;39.30;;;20.77;;
31238;SDS011;17871;31.584;74.450;2022-08-21T00:52:19;46.05;;;22.33;;
31238;SDS011;17871;31.584;74.450;2022-08-21T00:54:53;41.20;;;22.73;;
31238;SDS011;17871;31.584;74.450;2022-08-21T00:57:26;46.58;;;23.30;;
31238;SDS011;17871;31.584;74.450;2022-08-21T01:00:00;47.92;;;25.20;;
31238;SDS011;17871;31.584;74.450;2022-08-21T01:02:33;44.38;;;24.15;;
31238;SDS011;17871;31.584;74.450;2022-08-21T01:05:03;46.05;;;25.08;;
31238;SDS011;17871;31.584;74.450;2022-08-21T01:07:32;43.85;;;24.48;;
31238;SDS011;17871;31.584;74.450;2022-08-21T01:10:02;52.40;;;26.70;;
31238;SDS011;17871;31.584;74.450;2022-08-21T01:12:33;51.13;;;26.00;;
31238;SDS011;17871;31.584;74.450;2022-08-21T01:15:04;55.80;;;29.65;;
31238;SDS011;17871;31.584;74.450;2022-08-21T01:17:34;53.67;;;28.35;;
31238;SDS011;17871;31.584;74.450;2022-08-21T01:20:05;45.03;;;26.98;;
31238;SDS011;17871;31.584;74.450;2022-08-21T01:25:06;59.35;;;26.50;;
31238;SDS011;17871;31.584;74.450;2022-08-21T01:27:36;49.60;;;27.33;;
31238;SDS011;17871;31.584;74.450;2022-08-21T01:30:11;55.15;;;27.30;;
31238;SDS011;17871;31.584;74.450;2022-08-21T01:32:43;47.90;;;26.67;;
31238;SDS011;17871;31.584;74.450;2022-08-21T01:35:13;49.33;;;28.65;;
31238;SDS011;17871;31.584;74.450;2022-08-21T01:37:44;50.83;;;26.65;;
31238;SDS011;17871;31.584;74.450;2022-08-21T01:40:15;50.25;;;26.77;;
31238;SDS011;17871;31.584;74.450;2022-08-21T01:42:45;47.15;;;29.35;;
31238;SDS011;17871;31.584;74.450;2022-08-21T01:45:15;52.20;;;25.70;;
31238;SDS011;17871;31.584;74.450;2022-08-21T01:47:44;50.28;;;28.58;;
31238;SDS011;17871;31.584;74.450;2022-08-21T01:50:15;52.80;;;27.15;;
31238;SDS011;17871;31.584;74.450;2022-08-21T01:52:46;61.40;;;30.13;;
31238;SDS011;17871;31.584;74.450;2022-08-21T01:55:16;51.97;;;29.90;;
31238;SDS011;17871;31.584;74.450;2022-08-21T01:57:46;50.63;;;26.73;;
31238;SDS011;17871;31.584;74.450;2022-08-21T02:00:17;42.50;;;25.80;;
31238;SDS011;17871;31.584;74.450;2022-08-21T02:02:48;50.03;;;28.02;;
31238;SDS011;17871;31.584;74.450;2022-08-21T02:05:18;59.10;;;31.15;;
31238;SDS011;17871;31.584;74.450;2022-08-21T02:07:49;68.93;;;32.30;;
31238;SDS011;17871;31.584;74.450;2022-08-21T02:10:21;56.78;;;30.88;;
31238;SDS011;17871;31.584;74.450;2022-08-21T02:15:21;50.35;;;27.00;;
31238;SDS011;17871;31.584;74.450;2022-08-21T02:17:52;52.60;;;27.25;;
31238;SDS011;17871;31.584;74.450;2022-08-21T02:20:33;56.97;;;31.05;;
31238;SDS011;17871;31.584;74.450;2022-08-21T02:23:04;72.20;;;40.30;;
31238;SDS011;17871;31.584;74.450;2022-08-21T02:25:35;66.35;;;31.65;;
31238;SDS011;17871;31.584;74.450;2022-08-21T02:28:06;52.08;;;31.23;;
31238;SDS011;17871;31.584;74.450;2022-08-21T02:30:40;60.53;;;33.72;;
31238;SDS011;17871;31.584;74.450;2022-08-21T02:33:13;75.45;;;36.88;;
31238;SDS011;17871;31.584;74.450;2022-08-21T02:35:43;62.75;;;35.80;;
31238;SDS011;17871;31.584;74.450;2022-08-21T02:38:15;70.72;;;36.53;;
31238;SDS011;17871;31.584;74.450;2022-08-21T02:40:48;71.20;;;37.58;;
31238;SDS011;17871;31.584;74.450;2022-08-21T02:43:20;86.25;;;40.75;;
31238;SDS011;17871;31.584;74.450;2022-08-21T02:45:50;77.25;;;41.55;;
31238;SDS011;17871;31.584;74.450;2022-08-21T02:48:22;80.15;;;45.53;;
31238;SDS011;17871;31.584;74.450;2022-08-21T02:50:57;98.55;;;47.70;;
31238;SDS011;17871;31.584;74.450;2022-08-21T02:53:28;106.40;;;51.38;;
31238;SDS011;17871;31.584;74.450;2022-08-21T02:55:59;107.13;;;51.45;;
31238;SDS011;17871;31.584;74.450;2022-08-21T02:58:31;98.30;;;50.38;;
31238;SDS011;17871;31.584;74.450;2022-08-21T03:01:02;111.05;;;51.83;;
31238;SDS011;17871;31.584;74.450;2022-08-21T03:03:32;100.22;;;50.60;;
31238;SDS011;17871;31.584;74.450;2022-08-21T03:06:03;106.95;;;52.75;;
31238;SDS011;17871;31.584;74.450;2022-08-21T03:08:33;95.35;;;49.97;;
31238;SDS011;17871;31.584;74.450;2022-08-21T03:11:04;88.97;;;49.83;;
31238;SDS011;17871;31.584;74.450;2022-08-21T03:13:36;97.10;;;50.22;;
31238;SDS011;17871;31.584;74.450;2022-08-21T03:16:07;102.50;;;50.78;;
31238;SDS011;17871;31.584;74.450;2022-08-21T03:18:36;102.20;;;49.63;;
31238;SDS011;17871;31.584;74.450;2022-08-21T03:21:06;91.20;;;47.70;;
31238;SDS011;17871;31.584;74.450;2022-08-21T03:23:35;88.22;;;47.72;;
31238;SDS011;17871;31.584;74.450;2022-08-21T03:26:04;92.90;;;50.67;;
31238;SDS011;17871;31.584;74.450;2022-08-21T03:28:34;86.63;;;47.08;;
31238;SDS011;17871;31.584;74.450;2022-08-21T03:31:03;95.15;;;47.35;;
31238;SDS011;17871;31.584;74.450;2022-08-21T03:33:33;90.47;;;45.72;;
31238;SDS011;17871;31.584;74.450;2022-08-21T03:36:04;91.68;;;48.00;;
31238;SDS011;17871;31.584;74.450;2022-08-21T03:38:35;99.40;;;47.20;;
31238;SDS011;17871;31.584;74.450;2022-08-21T03:41:06;94.18;;;47.10;;
31238;SDS011;17871;31.584;74.450;2022-08-21T03:43:35;87.22;;;44.78;;
31238;SDS011;17871;31.584;74.450;2022-08-21T03:46:05;96.75;;;46.75;;
31238;SDS011;17871;31.584;74.450;2022-08-21T03:48:36;86.00;;;44.47;;
31238;SDS011;17871;31.584;74.450;2022-08-21T03:51:05;94.60;;;46.05;;
31238;SDS011;17871;31.584;74.450;2022-08-21T03:53:34;85.32;;;44.38;;
31238;SDS011;17871;31.584;74.450;2022-08-21T03:56:04;91.90;;;48.25;;
31238;SDS011;17871;31.584;74.450;2022-08-21T03:58:34;80.18;;;42.15;;
31238;SDS011;17871;31.584;74.450;2022-08-21T04:01:03;83.22;;;37.67;;
31238;SDS011;17871;31.584;74.450;2022-08-21T04:03:35;96.53;;;39.40;;
31238;SDS011;17871;31.584;74.450;2022-08-21T04:06:05;88.72;;;43.47;;
31238;SDS011;17871;31.584;74.450;2022-08-21T04:08:35;97.90;;;44.08;;
31238;SDS011;17871;31.584;74.450;2022-08-21T04:11:04;88.38;;;39.17;;
31238;SDS011;17871;31.584;74.450;2022-08-21T04:13:34;71.32;;;36.50;;
31238;SDS011;17871;31.584;74.450;2022-08-21T04:16:11;73.78;;;31.48;;
31238;SDS011;17871;31.584;74.450;2022-08-21T04:18:40;60.10;;;27.80;;
31238;SDS011;17871;31.584;74.450;2022-08-21T04:21:10;51.53;;;26.10;;
31238;SDS011;17871;31.584;74.450;2022-08-21T04:23:40;61.22;;;27.73;;
31238;SDS011;17871;31.584;74.450;2022-08-21T04:26:09;64.63;;;26.23;;
31238;SDS011;17871;31.584;74.450;2022-08-21T04:28:38;64.45;;;28.25;;
31238;SDS011;17871;31.584;74.450;2022-08-21T04:31:07;60.45;;;30.20;;
31238;SDS011;17871;31.584;74.450;2022-08-21T04:33:37;75.25;;;29.60;;
31238;SDS011;17871;31.584;74.450;2022-08-21T04:36:06;68.22;;;29.60;;
31238;SDS011;17871;31.584;74.450;2022-08-21T04:38:36;73.78;;;29.42;;
31238;SDS011;17871;31.584;74.450;2022-08-21T04:41:10;56.90;;;25.38;;
31238;SDS011;17871;31.584;74.450;2022-08-21T04:43:39;46.17;;;21.88;;
31238;SDS011;17871;31.584;74.450;2022-08-21T04:46:09;70.32;;;24.88;;
31238;SDS011;17871;31.584;74.450;2022-08-21T04:48:40;43.67;;;22.70;;
31238;SDS011;17871;31.584;74.450;2022-08-21T04:51:10;57.33;;;24.15;;
31238;SDS011;17871;31.584;74.450;2022-08-21T04:53:47;55.63;;;23.48;;
31238;SDS011;17871;31.584;74.450;2022-08-21T04:56:22;57.97;;;26.70;;
31238;SDS011;17871;31.584;74.450;2022-08-21T04:58:54;60.65;;;24.08;;
31238;SDS011;17871;31.584;74.450;2022-08-21T05:01:27;68.47;;;29.33;;
31238;SDS011;17871;31.584;74.450;2022-08-21T05:03:59;52.67;;;21.02;;
31238;SDS011;17871;31.584;74.450;2022-08-21T05:06:31;59.80;;;24.88;;
31238;SDS011;17871;31.584;74.450;2022-08-21T05:09:03;61.55;;;23.27;;
31238;SDS011;17871;31.584;74.450;2022-08-21T05:11:32;78.65;;;26.30;;
31238;SDS011;17871;31.584;74.450;2022-08-21T05:14:03;61.05;;;24.60;;
31238;SDS011;17871;31.584;74.450;2022-08-21T05:16:32;56.28;;;25.88;;
31238;SDS011;17871;31.584;74.450;2022-08-21T05:19:06;55.67;;;24.73;;
31238;SDS011;17871;31.584;74.450;2022-08-21T05:21:38;43.67;;;20.20;;
31238;SDS011;17871;31.584;74.450;2022-08-21T05:24:09;48.53;;;20.05;;
31238;SDS011;17871;31.584;74.450;2022-08-21T05:26:39;74.28;;;27.15;;
31238;SDS011;17871;31.584;74.450;2022-08-21T05:29:12;84.80;;;37.78;;
31238;SDS011;17871;31.584;74.450;2022-08-21T05:31:44;57.20;;;25.00;;
31238;SDS011;17871;31.584;74.450;2022-08-21T05:34:17;56.97;;;27.05;;
31238;SDS011;17871;31.584;74.450;2022-08-21T05:36:51;58.55;;;27.92;;
31238;SDS011;17871;31.584;74.450;2022-08-21T05:39:20;53.65;;;25.50;;
31238;SDS011;17871;31.584;74.450;2022-08-21T05:41:49;60.22;;;29.73;;
31238;SDS011;17871;31.584;74.450;2022-08-21T05:44:17;69.38;;;31.65;;
31238;SDS011;17871;31.584;74.450;2022-08-21T05:46:48;61.22;;;25.80;;
31238;SDS011;17871;31.584;74.450;2022-08-21T05:49:17;81.90;;;33.65;;
31238;SDS011;17871;31.584;74.450;2022-08-21T05:51:46;54.40;;;24.55;;
31238;SDS011;17871;31.584;74.450;2022-08-21T05:54:15;64.40;;;30.13;;
31238;SDS011;17871;31.584;74.450;2022-08-21T05:56:45;76.70;;;29.40;;
31238;SDS011;17871;31.584;74.450;2022-08-21T05:59:14;52.83;;;27.98;;
31238;SDS011;17871;31.584;74.450;2022-08-21T06:01:44;70.05;;;31.33;;
31238;SDS011;17871;31.584;74.450;2022-08-21T06:04:13;56.22;;;26.05;;
31238;SDS011;17871;31.584;74.450;2022-08-21T06:06:46;61.17;;;25.15;;
31238;SDS011;17871;31.584;74.450;2022-08-21T06:09:15;52.92;;;22.35;;
31238;SDS011;17871;31.584;74.450;2022-08-21T06:11:44;55.33;;;25.52;;
31238;SDS011;17871;31.584;74.450;2022-08-21T06:14:14;69.68;;;26.63;;
31238;SDS011;17871;31.584;74.450;2022-08-21T06:16:45;62.10;;;29.95;;
31238;SDS011;17871;31.584;74.450;2022-08-21T06:19:14;48.53;;;23.55;;
31238;SDS011;17871;31.584;74.450;2022-08-21T06:21:43;73.53;;;31.33;;
31238;SDS011;17871;31.584;74.450;2022-08-21T06:24:12;51.72;;;22.60;;
31238;SDS011;17871;31.584;74.450;2022-08-21T06:26:42;45.10;;;21.30;;
31238;SDS011;17871;31.584;74.450;2022-08-21T06:29:12;47.65;;;21.08;;
31238;SDS011;17871;31.584;74.450;2022-08-21T06:31:47;53.78;;;20.67;;
31238;SDS011;17871;31.584;74.450;2022-08-21T06:34:17;41.55;;;19.50;;
31238;SDS011;17871;31.584;74.450;2022-08-21T06:36:47;55.20;;;16.48;;
31238;SDS011;17871;31.584;74.450;2022-08-21T06:39:18;37.42;;;15.57;;
31238;SDS011;17871;31.584;74.450;2022-08-21T06:41:56;37.00;;;17.17;;
31238;SDS011;17871;31.584;74.450;2022-08-21T06:44:28;41.95;;;18.95;;
31238;SDS011;17871;31.584;74.450;2022-08-21T06:46:58;51.38;;;22.17;;
31238;SDS011;17871;31.584;74.450;2022-08-21T06:49:27;41.45;;;21.25;;
31238;SDS011;17871;31.584;74.450;2022-08-21T06:51:56;61.03;;;20.60;;
31238;SDS011;17871;31.584;74.450;2022-08-21T06:54:25;38.80;;;17.10;;
31238;SDS011;17871;31.584;74.450;2022-08-21T06:56:54;42.90;;;17.75;;
31238;SDS011;17871;31.584;74.450;2022-08-21T06:59:23;28.63;;;15.98;;
31238;SDS011;17871;31.584;74.450;2022-08-21T07:01:51;76.60;;;19.67;;
31238;SDS011;17871;31.584;74.450;2022-08-21T07:04:21;32.35;;;17.83;;
31238;SDS011;17871;31.584;74.450;2022-08-21T07:06:50;33.85;;;16.58;;
31238;SDS011;17871;31.584;74.450;2022-08-21T07:09:19;41.33;;;16.65;;
31238;SDS011;17871;31.584;74.450;2022-08-21T07:11:51;32.80;;;16.42;;
31238;SDS011;17871;31.584;74.450;2022-08-21T07:14:22;27.77;;;15.70;;
31238;SDS011;17871;31.584;74.450;2022-08-21T07:16:51;40.17;;;17.20;;
31238;SDS011;17871;31.584;74.450;2022-08-21T07:19:21;35.40;;;17.35;;
31238;SDS011;17871;31.584;74.450;2022-08-21T07:21:51;31.83;;;17.83;;
31238;SDS011;17871;31.584;74.450;2022-08-21T07:24:26;42.20;;;17.45;;
31238;SDS011;17871;31.584;74.450;2022-08-21T07:26:55;33.22;;;18.23;;
31238;SDS011;17871;31.584;74.450;2022-08-21T07:29:25;44.53;;;17.00;;
31238;SDS011;17871;31.584;74.450;2022-08-21T07:31:53;40.45;;;20.25;;
31238;SDS011;17871;31.584;74.450;2022-08-21T07:34:22;41.53;;;20.23;;
31238;SDS011;17871;31.584;74.450;2022-08-21T07:36:52;38.28;;;18.77;;
31238;SDS011;17871;31.584;74.450;2022-08-21T07:39:21;42.60;;;18.88;;
31238;SDS011;17871;31.584;74.450;2022-08-21T07:41:50;44.10;;;21.27;;
31238;SDS011;17871;31.584;74.450;2022-08-21T07:44:19;40.50;;;19.10;;
31238;SDS011;17871;31.584;74.450;2022-08-21T07:46:48;50.42;;;19.30;;
31238;SDS011;17871;31.584;74.450;2022-08-21T07:49:17;39.00;;;19.15;;
31238;SDS011;17871;31.584;74.450;2022-08-21T07:51:46;36.97;;;17.13;;
31238;SDS011;17871;31.584;74.450;2022-08-21T07:54:15;35.03;;;17.92;;
31238;SDS011;17871;31.584;74.450;2022-08-21T07:56:56;46.50;;;18.63;;
31238;SDS011;17871;31.584;74.450;2022-08-21T07:59:25;31.75;;;15.55;;
31238;SDS011;17871;31.584;74.450;2022-08-21T08:01:54;37.83;;;16.67;;
31238;SDS011;17871;31.584;74.450;2022-08-21T08:04:24;45.38;;;16.27;;
31238;SDS011;17871;31.584;74.450;2022-08-21T08:06:53;34.83;;;15.65;;
31238;SDS011;17871;31.584;74.450;2022-08-21T08:09:22;33.08;;;15.55;;
31238;SDS011;17871;31.584;74.450;2022-08-21T08:11:54;33.88;;;16.65;;
31238;SDS011;17871;31.584;74.450;2022-08-21T08:14:23;27.08;;;17.30;;
31238;SDS011;17871;31.584;74.450;2022-08-21T08:16:57;35.42;;;15.20;;
31238;SDS011;17871;31.584;74.450;2022-08-21T08:19:26;34.90;;;15.55;;
31238;SDS011;17871;31.584;74.450;2022-08-21T08:21:56;34.60;;;14.63;;
31238;SDS011;17871;31.584;74.450;2022-08-21T08:24:25;36.20;;;13.77;;
31238;SDS011;17871;31.584;74.450;2022-08-21T08:26:54;34.45;;;14.45;;
31238;SDS011;17871;31.584;74.450;2022-08-21T08:29:24;43.17;;;17.10;;
31238;SDS011;17871;31.584;74.450;2022-08-21T08:31:56;54.55;;;14.57;;
31238;SDS011;17871;31.584;74.450;2022-08-21T08:34:26;28.10;;;14.98;;
31238;SDS011;17871;31.584;74.450;2022-08-21T08:36:55;30.80;;;14.27;;
31238;SDS011;17871;31.584;74.450;2022-08-21T08:39:26;28.77;;;15.15;;
31238;SDS011;17871;31.584;74.450;2022-08-21T08:41:58;25.67;;;13.68;;
31238;SDS011;17871;31.584;74.450;2022-08-21T08:47:34;27.52;;;14.52;;
31238;SDS011;17871;31.584;74.450;2022-08-21T08:50:07;52.25;;;14.85;;
31238;SDS011;17871;31.584;74.450;2022-08-21T08:52:43;36.15;;;17.00;;
31238;SDS011;17871;31.584;74.450;2022-08-21T08:55:18;58.35;;;15.32;;
31238;SDS011;17871;31.584;74.450;2022-08-21T08:57:53;37.03;;;13.45;;
31238;SDS011;17871;31.584;74.450;2022-08-21T09:00:24;31.00;;;14.52;;
31238;SDS011;17871;31.584;74.450;2022-08-21T09:02:57;32.33;;;13.32;;
31238;SDS011;17871;31.584;74.450;2022-08-21T09:14:10;28.52;;;13.73;;
31238;SDS011;17871;31.584;74.450;2022-08-21T09:20:47;37.42;;;12.13;;
31238;SDS011;17871;31.584;74.450;2022-08-21T09:25:42;25.13;;;11.82;;
31238;SDS011;17871;31.584;74.450;2022-08-21T09:28:32;39.83;;;13.45;;
31238;SDS011;17871;31.584;74.450;2022-08-21T09:31:05;35.58;;;14.55;;
31238;SDS011;17871;31.584;74.450;2022-08-21T09:33:44;28.88;;;11.48;;
31238;SDS011;17871;31.584;74.450;2022-08-21T09:36:22;28.77;;;11.75;;
31238;SDS011;17871;31.584;74.450;2022-08-21T09:39:10;31.95;;;12.30;;
31238;SDS011;17871;31.584;74.450;2022-08-21T09:41:41;52.75;;;13.48;;
31238;SDS011;17871;31.584;74.450;2022-08-21T09:44:10;46.03;;;13.50;;
31238;SDS011;17871;31.584;74.450;2022-08-21T09:46:49;43.13;;;13.80;;
31238;SDS011;17871;31.584;74.450;2022-08-21T09:49:30;25.85;;;11.30;;
31238;SDS011;17871;31.584;74.450;2022-08-21T09:52:06;39.13;;;12.35;;
31238;SDS011;17871;31.584;74.450;2022-08-21T09:54:54;34.05;;;12.05;;
31238;SDS011;17871;31.584;74.450;2022-08-21T09:57:25;30.33;;;10.63;;
31238;SDS011;17871;31.584;74.450;2022-08-21T10:00:18;27.95;;;10.23;;
31238;SDS011;17871;31.584;74.450;2022-08-21T10:02:53;28.38;;;12.15;;
31238;SDS011;17871;31.584;74.450;2022-08-21T10:05:25;34.33;;;11.88;;
31238;SDS011;17871;31.584;74.450;2022-08-21T10:07:56;57.05;;;11.75;;
31238;SDS011;17871;31.584;74.450;2022-08-21T10:10:31;33.28;;;9.85;;
31238;SDS011;17871;31.584;74.450;2022-08-21T10:18:54;30.17;;;10.27;;
31238;SDS011;17871;31.584;74.450;2022-08-21T10:29:42;32.67;;;10.20;;
31238;SDS011;17871;31.584;74.450;2022-08-21T10:38:09;16.55;;;9.80;;
31238;SDS011;17871;31.584;74.450;2022-08-21T10:44:07;35.90;;;10.65;;
31238;SDS011;17871;31.584;74.450;2022-08-21T10:47:04;37.30;;;10.38;;
31238;SDS011;17871;31.584;74.450;2022-08-21T10:49:51;29.65;;;10.68;;
31238;SDS011;17871;31.584;74.450;2022-08-21T10:55:22;26.75;;;9.50;;
31238;SDS011;17871;31.584;74.450;2022-08-21T11:00:53;28.88;;;9.25;;
31238;SDS011;17871;31.584;74.450;2022-08-21T11:03:39;28.83;;;9.30;;
31238;SDS011;17871;31.584;74.450;2022-08-21T11:06:19;27.48;;;8.75;;
31238;SDS011;17871;31.584;74.450;2022-08-21T11:08:56;28.45;;;8.10;;
31238;SDS011;17871;31.584;74.450;2022-08-21T11:11:41;45.85;;;10.07;;
31238;SDS011;17871;31.584;74.450;2022-08-21T11:14:47;27.48;;;7.63;;
31238;SDS011;17871;31.584;74.450;2022-08-21T11:17:34;25.95;;;8.27;;
31238;SDS011;17871;31.584;74.450;2022-08-21T11:22:46;22.23;;;9.20;;
31238;SDS011;17871;31.584;74.450;2022-08-21T11:28:10;26.38;;;9.35;;
31238;SDS011;17871;31.584;74.450;2022-08-21T11:39:08;75.50;;;26.33;;
31238;SDS011;17871;31.584;74.450;2022-08-21T11:41:43;77.70;;;23.88;;
31238;SDS011;17871;31.584;74.450;2022-08-21T11:44:42;71.78;;;15.82;;
31238;SDS011;17871;31.584;74.450;2022-08-21T11:50:29;58.03;;;21.60;;
31238;SDS011;17871;31.584;74.450;2022-08-21T11:53:08;40.45;;;13.52;;
31238;SDS011;17871;31.584;74.450;2022-08-21T11:55:43;47.78;;;13.15;;
31238;SDS011;17871;31.584;74.450;2022-08-21T11:58:22;60.13;;;24.10;;
31238;SDS011;17871;31.584;74.450;2022-08-21T12:00:56;41.20;;;11.68;;
31238;SDS011;17871;31.584;74.450;2022-08-21T12:03:36;57.08;;;20.33;;
31238;SDS011;17871;31.584;74.450;2022-08-21T12:06:10;33.15;;;10.90;;
31238;SDS011;17871;31.584;74.450;2022-08-21T12:08:57;44.92;;;16.63;;
31238;SDS011;17871;31.584;74.450;2022-08-21T12:11:28;64.15;;;18.35;;
31238;SDS011;17871;31.584;74.450;2022-08-21T12:14:00;48.75;;;16.30;;
31238;SDS011;17871;31.584;74.450;2022-08-21T12:16:31;43.22;;;13.88;;
31238;SDS011;17871;31.584;74.450;2022-08-21T12:19:27;32.47;;;12.80;;
31238;SDS011;17871;31.584;74.450;2022-08-21T12:24:50;87.75;;;20.58;;
31238;SDS011;17871;31.584;74.450;2022-08-21T12:27:53;41.97;;;11.30;;
31238;SDS011;17871;31.584;74.450;2022-08-21T12:30:35;34.75;;;11.27;;
31238;SDS011;17871;31.584;74.450;2022-08-21T12:38:56;44.65;;;11.52;;
31238;SDS011;17871;31.584;74.450;2022-08-21T12:41:32;31.08;;;9.15;;
31238;SDS011;17871;31.584;74.450;2022-08-21T12:44:14;45.65;;;14.95;;
31238;SDS011;17871;31.584;74.450;2022-08-21T12:46:57;60.20;;;11.90;;
31238;SDS011;17871;31.584;74.450;2022-08-21T12:52:16;41.67;;;9.38;;
31238;SDS011;17871;31.584;74.450;2022-08-21T12:55:05;42.50;;;10.60;;
31238;SDS011;17871;31.584;74.450;2022-08-21T12:57:36;66.13;;;11.40;;
31238;SDS011;17871;31.584;74.450;2022-08-21T13:00:08;26.92;;;9.98;;
31238;SDS011;17871;31.584;74.450;2022-08-21T13:02:46;39.78;;;11.45;;
31238;SDS011;17871;31.584;74.450;2022-08-21T13:05:32;61.58;;;11.88;;
31238;SDS011;17871;31.584;74.450;2022-08-21T13:08:03;36.55;;;11.07;;
31238;SDS011;17871;31.584;74.450;2022-08-21T13:10:34;40.55;;;13.98;;
31238;SDS011;17871;31.584;74.450;2022-08-21T13:13:06;46.50;;;13.13;;
31238;SDS011;17871;31.584;74.450;2022-08-21T13:15:56;32.83;;;10.57;;
31238;SDS011;17871;31.584;74.450;2022-08-21T13:18:28;45.65;;;12.85;;
31238;SDS011;17871;31.584;74.450;2022-08-21T13:21:10;50.42;;;13.23;;
31238;SDS011;17871;31.584;74.450;2022-08-21T13:23:42;35.30;;;10.88;;
31238;SDS011;17871;31.584;74.450;2022-08-21T13:26:16;44.28;;;12.77;;
31238;SDS011;17871;31.584;74.450;2022-08-21T13:28:48;36.80;;;10.27;;
31238;SDS011;17871;31.584;74.450;2022-08-21T13:31:20;35.38;;;10.43;;
31238;SDS011;17871;31.584;74.450;2022-08-21T13:33:59;73.70;;;13.73;;
31238;SDS011;17871;31.584;74.450;2022-08-21T13:36:30;61.95;;;13.45;;
31238;SDS011;17871;31.584;74.450;2022-08-21T13:39:03;34.75;;;11.30;;
31238;SDS011;17871;31.584;74.450;2022-08-21T13:41:35;34.00;;;12.02;;
31238;SDS011;17871;31.584;74.450;2022-08-21T13:44:24;90.40;;;15.15;;
31238;SDS011;17871;31.584;74.450;2022-08-21T13:47:04;51.85;;;12.95;;
31238;SDS011;17871;31.584;74.450;2022-08-21T13:49:38;37.38;;;12.07;;
31238;SDS011;17871;31.584;74.450;2022-08-21T13:52:18;32.40;;;12.23;;
31238;SDS011;17871;31.584;74.450;2022-08-21T13:54:58;51.13;;;16.70;;
31238;SDS011;17871;31.584;74.450;2022-08-21T13:57:30;52.72;;;18.00;;
31238;SDS011;17871;31.584;74.450;2022-08-21T14:00:11;53.15;;;19.42;;
31238;SDS011;17871;31.584;74.450;2022-08-21T14:02:45;53.17;;;19.08;;
31238;SDS011;17871;31.584;74.450;2022-08-21T14:05:22;50.35;;;18.52;;
31238;SDS011;17871;31.584;74.450;2022-08-21T14:08:10;55.15;;;18.13;;
31238;SDS011;17871;31.584;74.450;2022-08-21T14:10:56;67.38;;;25.58;;
31238;SDS011;17871;31.584;74.450;2022-08-21T14:18:43;71.68;;;24.73;;
31238;SDS011;17871;31.584;74.450;2022-08-21T14:21:22;57.35;;;26.05;;
31238;SDS011;17871;31.584;74.450;2022-08-21T14:24:03;91.72;;;22.73;;
31238;SDS011;17871;31.584;74.450;2022-08-21T14:27:07;54.97;;;18.52;;
31238;SDS011;17871;31.584;74.450;2022-08-21T14:29:40;47.72;;;22.20;;
31238;SDS011;17871;31.584;74.450;2022-08-21T14:32:12;46.95;;;21.25;;
31238;SDS011;17871;31.584;74.450;2022-08-21T14:34:52;47.15;;;21.77;;
31238;SDS011;17871;31.584;74.450;2022-08-21T14:37:25;54.65;;;20.27;;
31238;SDS011;17871;31.584;74.450;2022-08-21T14:39:54;47.80;;;21.02;;
31238;SDS011;17871;31.584;74.450;2022-08-21T14:42:23;60.33;;;23.95;;
31238;SDS011;17871;31.584;74.450;2022-08-21T14:44:53;53.58;;;23.75;;
31238;SDS011;17871;31.584;74.450;2022-08-21T14:47:28;46.22;;;19.65;;
31238;SDS011;17871;31.584;74.450;2022-08-21T14:49:57;44.72;;;20.58;;
31238;SDS011;17871;31.584;74.450;2022-08-21T14:52:26;46.72;;;19.10;;
31238;SDS011;17871;31.584;74.450;2022-08-21T14:54:55;48.03;;;18.58;;
31238;SDS011;17871;31.584;74.450;2022-08-21T14:57:24;49.13;;;18.05;;
31238;SDS011;17871;31.584;74.450;2022-08-21T14:59:55;72.63;;;20.88;;
31238;SDS011;17871;31.584;74.450;2022-08-21T15:02:28;40.95;;;18.23;;
31238;SDS011;17871;31.584;74.450;2022-08-21T15:04:57;56.67;;;19.33;;
31238;SDS011;17871;31.584;74.450;2022-08-21T15:07:26;52.95;;;18.23;;
31238;SDS011;17871;31.584;74.450;2022-08-21T15:09:55;46.50;;;19.02;;
31238;SDS011;17871;31.584;74.450;2022-08-21T15:12:24;60.17;;;19.77;;
31238;SDS011;17871;31.584;74.450;2022-08-21T15:14:54;47.10;;;18.55;;
31238;SDS011;17871;31.584;74.450;2022-08-21T15:17:23;51.72;;;18.73;;
31238;SDS011;17871;31.584;74.450;2022-08-21T15:19:52;47.40;;;19.75;;
31238;SDS011;17871;31.584;74.450;2022-08-21T15:22:21;60.80;;;21.95;;
31238;SDS011;17871;31.584;74.450;2022-08-21T15:24:54;47.67;;;18.50;;
31238;SDS011;17871;31.584;74.450;2022-08-21T15:27:23;53.78;;;20.77;;
31238;SDS011;17871;31.584;74.450;2022-08-21T15:29:52;56.53;;;20.08;;
31238;SDS011;17871;31.584;74.450;2022-08-21T15:32:23;55.38;;;19.90;;
31238;SDS011;17871;31.584;74.450;2022-08-21T15:34:55;53.03;;;19.73;;
31238;SDS011;17871;31.584;74.450;2022-08-21T15:37:25;45.58;;;19.73;;
31238;SDS011;17871;31.584;74.450;2022-08-21T15:39:54;53.75;;;18.67;;
31238;SDS011;17871;31.584;74.450;2022-08-21T15:42:24;53.28;;;18.35;;
31238;SDS011;17871;31.584;74.450;2022-08-21T15:44:56;54.80;;;19.13;;
31238;SDS011;17871;31.584;74.450;2022-08-21T15:47:29;36.05;;;16.70;;
31238;SDS011;17871;31.584;74.450;2022-08-21T15:50:04;46.05;;;16.50;;
31238;SDS011;17871;31.584;74.450;2022-08-21T15:52:36;52.53;;;17.75;;
31238;SDS011;17871;31.584;74.450;2022-08-21T15:55:05;60.10;;;17.48;;
31238;SDS011;17871;31.584;74.450;2022-08-21T15:57:35;59.35;;;15.45;;
31238;SDS011;17871;31.584;74.450;2022-08-21T16:00:10;43.53;;;13.63;;
31238;SDS011;17871;31.584;74.450;2022-08-21T16:02:43;30.08;;;13.05;;
31238;SDS011;17871;31.584;74.450;2022-08-21T16:05:15;41.67;;;12.10;;
31238;SDS011;17871;31.584;74.450;2022-08-21T16:07:45;48.05;;;12.20;;